createdAt,value
2019-02-18T00:02:22.505Z,62.68
2019-02-18T00:04:51.453Z,62.72
2019-02-18T00:07:20.379Z,62.61
2019-02-18T00:09:49.310Z,62.47
2019-02-18T00:12:18.271Z,62.71
2019-02-18T00:14:47.210Z,63.00
2019-02-18T00:17:16.077Z,63.32
2019-02-18T00:19:45.014Z,63.46
2019-02-18T00:22:13.971Z,63.39
2019-02-18T00:24:42.908Z,63.64
2019-02-18T00:27:11.784Z,63.73
2019-02-18T00:29:40.739Z,63.99
2019-02-18T00:32:09.756Z,64.30
2019-02-18T00:34:38.652Z,64.22
2019-02-18T00:37:07.542Z,64.15
2019-02-18T00:39:36.390Z,64.03
2019-02-18T00:42:05.343Z,63.96
2019-02-18T00:44:34.288Z,64.25
2019-02-18T00:47:03.216Z,64.35
2019-02-18T00:49:32.174Z,64.31
2019-02-18T00:52:00.995Z,64.29
2019-02-18T00:54:29.988Z,64.34
2019-02-18T00:56:58.919Z,64.54
2019-02-18T00:59:27.853Z,64.38
2019-02-18T01:01:56.723Z,64.47
2019-02-18T01:04:25.661Z,64.53
2019-02-18T01:06:54.622Z,64.70
2019-02-18T01:09:23.541Z,65.30
2019-02-18T01:11:52.525Z,65.70
2019-02-18T01:14:21.439Z,65.43
2019-02-18T01:16:50.327Z,65.11
2019-02-18T01:19:19.239Z,65.40
2019-02-18T01:21:48.221Z,65.50
2019-02-18T01:24:17.082Z,65.70
2019-02-18T01:26:46.010Z,65.56
2019-02-18T01:29:14.917Z,65.58
2019-02-18T01:31:43.862Z,65.78
2019-02-18T01:34:12.831Z,65.67
2019-02-18T01:36:41.666Z,65.64
2019-02-18T01:39:10.556Z,65.62
2019-02-18T01:41:39.478Z,66.01
2019-02-18T01:44:08.408Z,66.27
2019-02-18T01:46:37.346Z,66.22
2019-02-18T01:49:06.208Z,66.00
2019-02-18T01:51:35.157Z,66.28
2019-02-18T01:54:04.012Z,66.57
2019-02-18T01:56:32.963Z,66.28
2019-02-18T01:59:01.868Z,66.31
2019-02-18T02:01:30.802Z,66.39
2019-02-18T02:03:59.739Z,66.54
2019-02-18T02:06:28.665Z,66.76
2019-02-18T02:08:57.611Z,66.95
2019-02-18T02:11:26.517Z,66.99
2019-02-18T02:13:55.296Z,66.98
2019-02-18T02:16:24.211Z,67.20
2019-02-18T02:18:53.159Z,67.44
2019-02-18T02:21:22.073Z,67.34
2019-02-18T02:23:51.084Z,67.03
2019-02-18T02:26:20.017Z,66.74
2019-02-18T02:28:48.967Z,66.58
2019-02-18T02:31:17.908Z,66.80
2019-02-18T02:33:46.841Z,66.83
2019-02-18T02:36:15.766Z,66.88
2019-02-18T02:38:44.715Z,66.78
2019-02-18T02:41:13.635Z,66.84
2019-02-18T02:43:42.582Z,66.85
2019-02-18T02:46:11.432Z,67.53
2019-02-18T02:48:40.348Z,67.58
2019-02-18T02:51:09.306Z,67.32
2019-02-18T02:53:38.253Z,67.36
2019-02-18T02:56:07.172Z,67.43
2019-02-18T02:58:36.088Z,67.78
2019-02-18T03:01:04.996Z,67.57
2019-02-18T03:03:33.915Z,67.47
2019-02-18T03:06:02.841Z,67.23
2019-02-18T03:08:31.757Z,67.19
2019-02-18T03:11:00.677Z,67.03
2019-02-18T03:13:29.609Z,67.07
2019-02-18T03:15:58.533Z,66.88
2019-02-18T03:18:27.492Z,66.81
2019-02-18T03:20:56.409Z,67.07
2019-02-18T03:23:25.333Z,66.95
2019-02-18T03:25:55.229Z,66.77
2019-02-18T03:28:45.864Z,66.91
2019-02-18T03:31:19.482Z,67.03
2019-02-18T03:33:55.359Z,67.28
2019-02-18T03:36:24.309Z,67.14
2019-02-18T03:38:53.261Z,67.01
2019-02-18T03:41:22.184Z,67.11
2019-02-18T03:43:51.092Z,67.30
2019-02-18T03:46:20.117Z,67.19
2019-02-18T03:48:49.030Z,67.23
2019-02-18T03:51:17.972Z,67.12
2019-02-18T03:53:46.806Z,67.13
2019-02-18T03:56:15.745Z,67.35
2019-02-18T03:58:44.788Z,67.43
2019-02-18T04:01:13.761Z,67.51
2019-02-18T04:03:42.658Z,67.61
2019-02-18T04:06:11.430Z,67.43
2019-02-18T04:08:43.249Z,67.44
2019-02-18T04:11:11.005Z,67.47
2019-02-18T04:13:39.918Z,67.71
2019-02-18T04:16:08.872Z,67.92
2019-02-18T04:18:37.765Z,68.16
2019-02-18T04:21:06.689Z,68.41
2019-02-18T04:23:35.619Z,68.51
2019-02-18T04:26:04.535Z,68.58
2019-02-18T04:28:33.441Z,68.78
2019-02-18T04:31:02.400Z,68.87
2019-02-18T04:33:31.336Z,68.81
2019-02-18T04:36:00.252Z,68.75
2019-02-18T04:38:29.244Z,68.92
2019-02-18T04:40:58.223Z,68.66
2019-02-18T04:43:27.132Z,68.46
2019-02-18T04:45:56.087Z,68.35
2019-02-18T04:48:24.995Z,68.62
2019-02-18T04:50:53.936Z,68.83
2019-02-18T04:53:22.881Z,68.82
2019-02-18T04:55:51.726Z,69.10
2019-02-18T04:58:20.675Z,69.20
2019-02-18T05:00:49.572Z,69.25
2019-02-18T05:03:18.510Z,69.21
2019-02-18T05:05:47.384Z,69.35
2019-02-18T05:08:16.352Z,69.21
2019-02-18T05:10:45.354Z,69.12
2019-02-18T05:13:14.295Z,69.15
2019-02-18T05:15:43.261Z,69.39
2019-02-18T05:18:12.186Z,69.11
2019-02-18T05:20:41.169Z,69.08
2019-02-18T05:23:10.121Z,68.91
2019-02-18T05:25:39.075Z,69.06
2019-02-18T05:28:07.943Z,69.06
2019-02-18T05:30:36.751Z,69.35
2019-02-18T05:33:05.701Z,69.15
2019-02-18T05:35:34.579Z,69.23
2019-02-18T05:38:03.524Z,69.13
2019-02-18T05:40:32.479Z,69.68
2019-02-18T05:43:01.299Z,70.00
2019-02-18T05:45:30.140Z,70.24
2019-02-18T05:47:59.045Z,70.58
2019-02-18T05:50:27.985Z,70.60
2019-02-18T05:52:56.917Z,70.79
2019-02-18T05:55:25.873Z,70.85
2019-02-18T05:57:54.848Z,70.79
2019-02-18T06:00:23.759Z,70.78
2019-02-18T06:02:52.702Z,70.93
2019-02-18T06:05:21.631Z,70.70
2019-02-18T06:07:50.554Z,70.43
2019-02-18T06:10:21.612Z,70.16
2019-02-18T06:12:50.183Z,70.12
2019-02-18T06:15:19.144Z,70.12
2019-02-18T06:17:48.105Z,69.99
2019-02-18T06:20:16.956Z,70.08
2019-02-18T06:22:45.814Z,70.30
2019-02-18T06:25:14.743Z,70.19
2019-02-18T06:27:43.735Z,70.19
2019-02-18T06:30:12.660Z,70.23
2019-02-18T06:32:41.578Z,70.12
2019-02-18T06:35:11.307Z,70.22
2019-02-18T06:37:40.188Z,70.39
2019-02-18T06:40:09.322Z,71.23
2019-02-18T06:42:38.272Z,71.55
2019-02-18T06:45:35.230Z,71.83
2019-02-18T06:48:25.953Z,71.96
2019-02-18T06:50:54.887Z,71.10
2019-02-18T06:53:23.861Z,70.60
2019-02-18T06:55:52.844Z,70.60
2019-02-18T06:58:41.289Z,69.88
2019-02-18T07:01:18.141Z,69.57
2019-02-18T07:04:04.461Z,68.21
2019-02-18T07:06:39.989Z,67.01
2019-02-18T07:09:27.926Z,66.11
2019-02-18T07:12:21.752Z,64.83
2019-02-18T07:14:50.688Z,63.08
2019-02-18T07:17:19.639Z,62.52
2019-02-18T07:19:48.653Z,59.81
2019-02-18T07:22:17.597Z,56.06
2019-02-18T07:24:46.552Z,52.04
2019-02-18T07:27:15.407Z,49.27
2019-02-18T07:29:44.358Z,48.08
2019-02-18T07:32:13.296Z,47.61
2019-02-18T07:34:42.252Z,47.07
2019-02-18T07:37:11.107Z,45.90
2019-02-18T07:39:40.090Z,44.21
2019-02-18T07:42:09.005Z,43.43
2019-02-18T07:44:37.900Z,42.29
2019-02-18T07:47:07.062Z,41.42
2019-02-18T07:49:36.063Z,40.45
2019-02-18T07:52:05.006Z,39.79
2019-02-18T07:54:33.898Z,39.79
2019-02-18T07:57:02.848Z,39.65
2019-02-18T07:59:31.735Z,40.12
2019-02-18T08:02:00.673Z,40.29
2019-02-18T08:04:29.687Z,40.28
2019-02-18T08:06:58.618Z,40.81
2019-02-18T08:09:27.703Z,40.81
2019-02-18T08:11:56.649Z,40.30
2019-02-18T08:14:25.647Z,40.29
2019-02-18T08:16:54.577Z,41.19
2019-02-18T08:19:23.513Z,41.22
2019-02-18T08:21:52.525Z,40.89
2019-02-18T08:24:21.477Z,40.01
2019-02-18T08:26:50.423Z,39.47
2019-02-18T08:29:19.376Z,38.77
2019-02-18T08:31:48.330Z,37.33
2019-02-18T08:34:17.320Z,37.17
2019-02-18T08:36:46.291Z,37.25
2019-02-18T08:39:15.253Z,36.62
2019-02-18T08:41:44.232Z,36.07
2019-02-18T08:44:13.178Z,35.81
2019-02-18T08:46:42.274Z,35.36
2019-02-18T08:49:11.234Z,34.66
2019-02-18T08:51:40.196Z,34.27
2019-02-18T08:54:09.136Z,33.98
2019-02-18T08:56:38.109Z,33.48
2019-02-18T08:59:06.989Z,32.99
2019-02-18T09:01:35.963Z,32.47
2019-02-18T09:04:04.960Z,31.58
2019-02-18T09:06:33.921Z,30.90
2019-02-18T09:09:02.867Z,30.05
2019-02-18T09:11:31.811Z,28.86
2019-02-18T09:14:00.749Z,27.67
2019-02-18T09:16:29.679Z,26.73
2019-02-18T09:18:58.621Z,25.55
2019-02-18T09:24:22.484Z,23.33
2019-02-18T09:26:51.564Z,22.52
2019-02-18T09:29:20.511Z,22.70
2019-02-18T09:31:49.463Z,22.08
2019-02-18T09:34:18.389Z,22.28
2019-02-18T09:36:47.346Z,22.51
2019-02-18T09:39:30.092Z,22.50
2019-02-18T09:41:49.386Z,22.45
2019-02-18T09:44:18.383Z,22.71
2019-02-18T09:46:47.353Z,22.67
2019-02-18T09:49:16.262Z,22.25
2019-02-18T09:51:45.245Z,22.43
2019-02-18T09:54:14.184Z,22.75
2019-02-18T09:56:43.142Z,22.56
2019-02-18T09:59:14.715Z,22.57
2019-02-18T10:01:43.710Z,21.96
2019-02-18T10:04:13.031Z,23.12
2019-02-18T10:06:41.992Z,23.28
2019-02-18T10:09:10.952Z,23.44
2019-02-18T10:11:39.829Z,23.70
2019-02-18T10:14:08.815Z,24.17
2019-02-18T10:16:37.779Z,23.95
2019-02-18T10:19:06.677Z,23.68
2019-02-18T10:21:35.615Z,23.39
2019-02-18T10:24:04.477Z,23.47
2019-02-18T10:26:33.480Z,23.95
2019-02-18T10:29:02.497Z,24.19
2019-02-18T10:31:31.479Z,24.37
2019-02-18T10:34:00.445Z,24.25
2019-02-18T10:36:29.381Z,24.49
2019-02-18T10:38:58.387Z,24.54
2019-02-18T10:41:27.362Z,25.13
2019-02-18T10:43:56.315Z,25.32
2019-02-18T10:46:25.306Z,24.91
2019-02-18T10:48:54.300Z,25.78
2019-02-18T10:51:23.262Z,26.18
2019-02-18T10:53:53.154Z,26.72
2019-02-18T10:56:22.172Z,27.19
2019-02-18T10:58:51.140Z,27.63
2019-02-18T11:01:20.104Z,28.12
2019-02-18T11:03:49.132Z,28.36
2019-02-18T11:06:18.080Z,28.92
2019-02-18T11:08:47.045Z,29.47
2019-02-18T11:11:17.190Z,29.17
2019-02-18T11:13:46.234Z,29.20
2019-02-18T11:16:15.201Z,29.32
2019-02-18T11:18:44.160Z,28.83
2019-02-18T11:21:13.324Z,28.61
2019-02-18T11:23:42.355Z,28.63
2019-02-18T11:26:11.389Z,29.73
2019-02-18T11:28:40.318Z,29.37
2019-02-18T11:31:09.246Z,29.19
2019-02-18T11:33:38.207Z,29.53
2019-02-18T11:36:10.281Z,29.48
2019-02-18T11:38:39.278Z,29.98
2019-02-18T11:41:08.275Z,30.46
2019-02-18T11:43:37.209Z,29.86
2019-02-18T11:46:06.163Z,30.35
2019-02-18T11:48:35.570Z,30.28
2019-02-18T11:51:04.461Z,29.49
2019-02-18T11:53:33.428Z,29.77
2019-02-18T11:56:02.393Z,29.73
2019-02-18T11:58:31.351Z,30.41
2019-02-18T12:01:00.322Z,29.81
2019-02-18T12:03:29.456Z,29.89
2019-02-18T12:05:58.358Z,30.19
2019-02-18T12:08:27.260Z,30.14
2019-02-18T12:10:56.241Z,30.40
2019-02-18T12:13:25.196Z,30.27
2019-02-18T12:15:54.146Z,30.03
2019-02-18T12:18:23.079Z,30.00
2019-02-18T12:20:52.074Z,29.96
2019-02-18T12:23:21.084Z,30.07
2019-02-18T12:25:50.006Z,30.08
2019-02-18T12:28:19.003Z,29.77
2019-02-18T12:30:47.988Z,29.99
2019-02-18T12:33:16.955Z,30.22
2019-02-18T12:35:46.159Z,30.03
2019-02-18T12:38:17.346Z,29.75
2019-02-18T12:40:45.747Z,29.53
2019-02-18T12:43:14.737Z,30.37
2019-02-18T12:45:43.609Z,29.95
2019-02-18T12:48:12.606Z,30.17
2019-02-18T12:50:41.621Z,28.93
2019-02-18T12:53:10.580Z,28.65
2019-02-18T12:55:39.554Z,28.45
2019-02-18T12:58:08.528Z,28.94
2019-02-18T13:00:37.480Z,28.40
2019-02-18T13:03:06.428Z,28.74
2019-02-18T13:05:35.483Z,28.94
2019-02-18T13:08:04.902Z,29.45
2019-02-18T13:10:34.797Z,29.27
2019-02-18T13:13:05.387Z,28.93
2019-02-18T13:15:34.308Z,28.24
2019-02-18T13:20:40.575Z,26.50
2019-02-18T13:23:12.181Z,26.71
2019-02-18T13:25:47.381Z,27.04
2019-02-18T13:28:11.913Z,27.04
2019-02-18T13:30:40.861Z,27.25
2019-02-18T13:33:09.825Z,27.16
2019-02-18T13:35:38.943Z,27.11
2019-02-18T13:38:08.345Z,27.30
2019-02-18T13:40:37.321Z,27.44
2019-02-18T13:43:06.381Z,27.24
2019-02-18T13:45:35.351Z,27.14
2019-02-18T13:48:04.440Z,27.39
2019-02-18T13:50:33.369Z,27.08
2019-02-18T13:53:02.302Z,27.00
2019-02-18T13:55:31.303Z,27.17
2019-02-18T13:58:00.319Z,26.91
2019-02-18T14:00:29.303Z,27.00
2019-02-18T14:02:58.252Z,27.31
2019-02-18T14:05:27.202Z,27.41
2019-02-18T14:07:56.202Z,27.56
2019-02-18T14:10:25.083Z,27.83
2019-02-18T14:12:54.088Z,27.85
2019-02-18T14:15:23.048Z,28.02
2019-02-18T14:17:52.102Z,28.54
2019-02-18T14:20:22.518Z,28.29
2019-02-18T14:22:51.496Z,28.44
2019-02-18T14:25:20.638Z,28.17
2019-02-18T14:27:49.634Z,28.54
2019-02-18T14:30:18.591Z,28.50
2019-02-18T14:32:47.795Z,28.94
2019-02-18T14:35:17.213Z,28.83
2019-02-18T14:37:46.165Z,28.81
2019-02-18T14:40:16.459Z,28.55
2019-02-18T14:42:45.412Z,28.77
2019-02-18T14:45:14.337Z,29.03
2019-02-18T14:47:43.327Z,29.40
2019-02-18T14:50:12.231Z,29.61
2019-02-18T14:52:41.095Z,29.85
2019-02-18T14:55:10.081Z,29.86
2019-02-18T14:57:39.119Z,29.41
2019-02-18T15:00:16.053Z,29.83
2019-02-18T15:02:45.017Z,29.91
2019-02-18T15:05:14.165Z,30.24
2019-02-18T15:07:43.543Z,30.41
2019-02-18T15:10:12.481Z,30.23
2019-02-18T15:12:41.428Z,29.99
2019-02-18T15:15:10.413Z,30.10
2019-02-18T15:17:39.403Z,30.25
2019-02-18T15:20:08.373Z,30.65
2019-02-18T15:22:37.844Z,30.85
2019-02-18T15:25:07.026Z,31.02
2019-02-18T15:27:36.020Z,30.92
2019-02-18T15:30:06.551Z,31.26
2019-02-18T15:32:35.506Z,31.46
2019-02-18T15:35:04.592Z,31.69
2019-02-18T15:37:33.822Z,31.97
2019-02-18T15:40:02.896Z,32.08
2019-02-18T15:42:31.802Z,32.00
2019-02-18T15:45:00.820Z,32.38
2019-02-18T15:47:29.741Z,32.08
2019-02-18T15:49:58.725Z,32.58
2019-02-18T15:52:28.060Z,32.76
2019-02-18T15:54:57.060Z,32.80
2019-02-18T15:57:26.007Z,32.81
2019-02-18T15:59:54.981Z,33.12
2019-02-18T16:02:23.891Z,33.57
2019-02-18T16:04:52.969Z,34.09
2019-02-18T16:07:22.427Z,34.66
2019-02-18T16:09:51.412Z,35.16
2019-02-18T16:12:20.397Z,36.00
2019-02-18T16:14:49.366Z,36.70
2019-02-18T16:17:18.390Z,37.14
2019-02-18T16:19:47.409Z,37.74
2019-02-18T16:22:17.226Z,38.34
2019-02-18T16:24:46.112Z,37.14
2019-02-18T16:27:15.072Z,36.98
2019-02-18T16:29:44.031Z,36.48
2019-02-18T16:32:12.964Z,36.51
2019-02-18T16:34:41.952Z,37.05
2019-02-18T16:37:11.547Z,37.47
2019-02-18T16:39:40.656Z,38.23
2019-02-18T16:42:09.880Z,38.86
2019-02-18T16:44:38.874Z,39.29
2019-02-18T16:47:08.025Z,39.81
2019-02-18T16:49:37.357Z,40.27
2019-02-18T16:52:06.714Z,40.76
2019-02-18T16:54:35.686Z,40.93
2019-02-18T16:57:04.642Z,41.30
2019-02-18T16:59:33.655Z,41.71
2019-02-18T17:02:02.656Z,42.08
2019-02-18T17:04:31.695Z,42.45
2019-02-18T17:07:01.043Z,42.69
2019-02-18T17:09:30.040Z,43.17
2019-02-18T17:11:59.013Z,43.49
2019-02-18T17:14:28.058Z,43.81
2019-02-18T17:16:57.013Z,44.09
2019-02-18T17:19:25.981Z,44.44
2019-02-18T17:21:54.932Z,44.92
2019-02-18T17:24:23.926Z,45.36
2019-02-18T17:26:52.875Z,45.52
2019-02-18T17:29:21.834Z,45.72
2019-02-18T17:31:50.890Z,45.89
2019-02-18T17:34:19.852Z,46.17
2019-02-18T17:36:48.914Z,46.35
2019-02-18T17:39:18.121Z,46.52
2019-02-18T17:41:47.083Z,46.67
2019-02-18T17:44:20.211Z,46.86
2019-02-18T17:46:46.875Z,47.19
2019-02-18T17:49:15.892Z,47.37
2019-02-18T17:51:44.858Z,47.50
2019-02-18T17:54:14.226Z,47.63
2019-02-18T17:56:43.314Z,47.57
2019-02-18T17:59:14.064Z,47.29
2019-02-18T18:01:43.061Z,47.49
2019-02-18T18:04:12.054Z,48.10
2019-02-18T18:06:41.073Z,48.29
2019-02-18T18:09:10.317Z,48.45
2019-02-18T18:11:39.306Z,48.50
2019-02-18T18:14:11.379Z,48.61
2019-02-18T18:16:40.388Z,48.60
2019-02-18T18:19:09.713Z,48.87
2019-02-18T18:21:38.902Z,48.79
2019-02-18T18:24:08.049Z,48.97
2019-02-18T18:26:37.139Z,49.14
2019-02-18T18:29:06.028Z,49.41
2019-02-18T18:31:35.069Z,49.55
2019-02-18T18:34:04.020Z,49.72
2019-02-18T18:36:33.073Z,49.90
2019-02-18T18:39:02.657Z,49.96
2019-02-18T18:41:31.822Z,50.20
2019-02-18T18:44:01.148Z,50.46
2019-02-18T18:46:30.129Z,50.52
2019-02-18T18:48:59.582Z,50.77
2019-02-18T18:51:28.708Z,50.92
2019-02-18T18:53:57.918Z,51.26
2019-02-18T18:56:26.888Z,51.49
2019-02-18T18:58:56.257Z,51.45
2019-02-18T19:01:25.676Z,51.41
2019-02-18T19:03:54.684Z,51.43
2019-02-18T19:06:23.839Z,51.40
2019-02-18T19:08:53.139Z,51.55
2019-02-18T19:11:22.218Z,51.62
2019-02-18T19:13:52.060Z,51.69
2019-02-18T19:16:21.386Z,51.72
2019-02-18T19:18:50.730Z,51.66
2019-02-18T19:21:20.479Z,52.16
2019-02-18T19:23:49.486Z,51.90
2019-02-18T19:26:18.533Z,51.82
2019-02-18T19:28:48.127Z,51.73
2019-02-18T19:31:17.909Z,52.24
2019-02-18T19:33:47.666Z,52.13
2019-02-18T19:36:16.944Z,52.25
2019-02-18T19:38:46.191Z,52.44
2019-02-18T19:41:15.456Z,52.49
2019-02-18T19:43:50.170Z,52.77
2019-02-18T19:46:15.924Z,52.79
2019-02-18T19:48:45.074Z,53.01
2019-02-18T19:51:14.766Z,52.85
2019-02-18T19:53:44.466Z,52.70
2019-02-18T19:56:13.998Z,52.91
2019-02-18T19:58:43.757Z,53.21
2019-02-18T20:01:12.918Z,53.31
2019-02-18T20:03:43.250Z,53.40
2019-02-18T20:06:12.619Z,53.56
2019-02-18T20:08:42.062Z,54.13
2019-02-18T20:11:11.839Z,54.52
2019-02-18T20:13:40.907Z,54.61
2019-02-18T20:16:11.673Z,54.54
2019-02-18T20:18:41.010Z,54.48
2019-02-18T20:21:10.059Z,54.41
2019-02-18T20:23:39.459Z,54.35
2019-02-18T20:26:08.522Z,54.54
2019-02-18T20:28:37.613Z,54.80
2019-02-18T20:31:06.866Z,54.73
2019-02-18T20:33:35.879Z,54.93
2019-02-18T20:36:05.086Z,55.22
2019-02-18T20:38:34.196Z,55.31
2019-02-18T20:41:03.524Z,55.36
2019-02-18T20:43:32.877Z,55.53
2019-02-18T20:46:01.925Z,55.57
2019-02-18T20:48:30.879Z,55.73
2019-02-18T20:51:00.054Z,55.84
2019-02-18T20:53:29.384Z,55.82
2019-02-18T20:55:58.850Z,55.97
2019-02-18T20:58:28.078Z,56.33
2019-02-18T21:00:57.496Z,56.31
2019-02-18T21:03:26.584Z,56.45
2019-02-18T21:05:55.698Z,56.49
2019-02-18T21:08:25.366Z,56.49
2019-02-18T21:10:54.351Z,56.53
2019-02-18T21:13:23.458Z,56.66
2019-02-18T21:15:52.565Z,56.79
2019-02-18T21:18:21.648Z,56.85
2019-02-18T21:20:51.302Z,57.09
2019-02-18T21:23:20.286Z,57.41
2019-02-18T21:25:49.297Z,57.51
2019-02-18T21:28:18.272Z,57.40
2019-02-18T21:30:47.413Z,57.54
2019-02-18T21:33:16.425Z,57.46
2019-02-18T21:35:45.537Z,57.66
2019-02-18T21:38:14.534Z,57.49
2019-02-18T21:40:43.475Z,57.53
2019-02-18T21:43:12.464Z,57.63
2019-02-18T21:45:41.439Z,57.65
2019-02-18T21:48:10.359Z,57.83
2019-02-18T21:50:39.334Z,57.92
2019-02-18T21:53:08.303Z,58.06
2019-02-18T21:55:37.289Z,58.32
2019-02-18T21:58:06.208Z,58.59
2019-02-18T22:00:35.178Z,58.66
2019-02-18T22:03:04.188Z,58.61
2019-02-18T22:05:33.145Z,58.80
2019-02-18T22:08:02.096Z,58.91
2019-02-18T22:10:31.063Z,58.96
2019-02-18T22:13:00.089Z,58.98
2019-02-18T22:15:29.032Z,59.00
2019-02-18T22:17:58.371Z,59.09
2019-02-18T22:20:27.389Z,58.97
2019-02-18T22:22:56.370Z,59.05
2019-02-18T22:25:25.340Z,59.25
2019-02-18T22:27:54.288Z,59.35
2019-02-18T22:30:23.450Z,59.37
2019-02-18T22:32:52.613Z,59.54
2019-02-18T22:35:21.795Z,59.69
2019-02-18T22:37:51.058Z,59.86
2019-02-18T22:40:20.276Z,59.84
2019-02-18T22:42:49.417Z,60.16
2019-02-18T22:45:18.595Z,60.31
2019-02-18T22:47:47.777Z,60.42
2019-02-18T22:50:17.152Z,60.53
2019-02-18T22:52:46.345Z,60.60
2019-02-18T22:55:15.572Z,60.62
2019-02-18T22:57:44.749Z,60.93
2019-02-18T23:01:00.751Z,61.17
2019-02-18T23:03:29.939Z,61.02
2019-02-18T23:05:59.062Z,61.00
2019-02-18T23:08:28.219Z,60.92
2019-02-18T23:10:57.744Z,61.17
2019-02-18T23:13:26.928Z,61.23
2019-02-18T23:15:56.569Z,61.61
2019-02-18T23:18:25.865Z,61.48
2019-02-18T23:20:55.045Z,61.49
2019-02-18T23:23:24.272Z,61.55
2019-02-18T23:25:53.415Z,62.01
2019-02-18T23:28:22.579Z,61.99
2019-02-18T23:30:51.753Z,62.62
2019-02-18T23:33:20.906Z,62.30
2019-02-18T23:35:50.113Z,62.26
2019-02-18T23:38:19.255Z,62.25
2019-02-18T23:40:48.466Z,62.46
2019-02-18T23:43:18.437Z,62.66
2019-02-18T23:45:47.589Z,62.73
2019-02-18T23:48:16.728Z,62.84
2019-02-18T23:50:45.859Z,62.92
2019-02-18T23:53:15.007Z,62.78
2019-02-18T23:55:44.130Z,62.62
2019-02-18T23:58:13.264Z,62.65
